aviador You're here:

KLRF Decoded Metar

JACKSONVILLE in AR, USA
Report Time2018-02-18 20:56:00
UTC Time2018-02-18 21:59:06
Flight Rules ifr IFR
Wind150° at 06 kt
W.Decomp.*RWY 07: 1.1 kt HW 5.9 kt RCW
W.Rank150° ranks 13
Current wind is above 150° avg. (5.4)
Visibility9999 m
Phenomena:N/A
Clouds:Overcast 009 Hf
Expected CloudBase > 400 ft AGL from Temp-Dew spread
Ceiling900 ft
Temp09°C (ISA -5)
Dew Point08°C (94% RH)
AAT6.4°C
QNH1019 hPa
Density Alt-390 ft
Elevation312 ft
Report Wrong Elevation
Raw Report
KLRF 182056Z AUTO 15006KT 10SM OVC009 09/08 A3009 RMK AO2 CIG 008
RWY07 SLP194 T00910075 57032=

Extra information for KLRF:More info

Metar Taf Metar & Taf Last 4 Metars F.Rules Stats Wind Profile Meteogram Temp Stats Airport Information Weather charts Add Link Nearby VenuesMetar ALERT Operation Metar Decoded Social comments

AIRNAV info for KLRF